createdAt,value
2023-11-17T00:00:39.525Z,12.09
2023-11-17T00:03:30.790Z,11.67
2023-11-17T00:06:00.295Z,11.82
2023-11-17T00:08:30.331Z,11.82
2023-11-17T00:10:59.326Z,11.84
2023-11-17T00:13:28.168Z,11.65
2023-11-17T00:15:57.404Z,11.64
2023-11-17T00:18:26.168Z,11.65
2023-11-17T00:20:57.234Z,11.65
2023-11-17T00:23:28.586Z,11.54
2023-11-17T00:25:57.788Z,11.76
2023-11-17T00:28:26.630Z,11.82
2023-11-17T00:30:56.833Z,11.89
2023-11-17T00:33:25.510Z,11.46
2023-11-17T00:35:54.407Z,11.34
2023-11-17T00:38:25.797Z,10.72
2023-11-17T00:40:54.799Z,10.96
2023-11-17T00:43:23.530Z,10.85
2023-11-17T00:45:53.949Z,10.89
2023-11-17T00:48:23.328Z,10.72
2023-11-17T00:50:53.626Z,10.85
2023-11-17T00:53:24.312Z,10.86
2023-11-17T00:55:54.755Z,10.76
2023-11-17T00:58:25.498Z,10.84
2023-11-17T01:00:54.757Z,10.92
2023-11-17T01:03:23.454Z,11.17
2023-11-17T01:05:53.897Z,11.14
2023-11-17T01:08:22.509Z,11.21
2023-11-17T01:10:51.778Z,11.25
2023-11-17T01:13:23.215Z,11.58
2023-11-17T01:15:52.240Z,11.78
2023-11-17T01:18:21.247Z,11.79
2023-11-17T01:20:50.232Z,11.94
2023-11-17T01:23:19.358Z,12.07
2023-11-17T01:25:48.341Z,12.29
2023-11-17T01:28:18.623Z,12.47
2023-11-17T01:30:49.197Z,12.61
2023-11-17T01:33:17.838Z,12.72
2023-11-17T01:35:47.139Z,12.77
2023-11-17T01:38:15.808Z,12.84
2023-11-17T01:40:44.761Z,12.57
2023-11-17T01:43:17.528Z,12.57
2023-11-17T01:45:46.717Z,12.61
2023-11-17T01:48:19.612Z,12.75
2023-11-17T01:50:49.711Z,12.80
2023-11-17T01:53:19.376Z,12.76
2023-11-17T01:55:48.824Z,12.74
2023-11-17T01:58:18.170Z,12.71
2023-11-17T02:00:47.124Z,12.75
2023-11-17T02:03:18.562Z,12.88
2023-11-17T02:05:52.970Z,12.73
2023-11-17T02:08:29.328Z,12.80
2023-11-17T02:11:06.962Z,12.87
2023-11-17T02:13:41.126Z,12.72
2023-11-17T02:16:12.837Z,12.53
2023-11-17T02:18:51.217Z,12.61
2023-11-17T02:21:30.366Z,12.54
2023-11-17T02:24:00.776Z,12.56
2023-11-17T02:26:43.704Z,12.65
2023-11-17T02:29:38.915Z,12.50
2023-11-17T02:32:16.966Z,12.45
2023-11-17T02:34:46.860Z,12.00
2023-11-17T02:37:17.107Z,12.14
2023-11-17T02:39:47.120Z,11.93
2023-11-17T02:42:25.050Z,11.79
2023-11-17T02:44:53.691Z,11.74
2023-11-17T02:47:29.276Z,11.86
2023-11-17T02:50:02.200Z,11.66
2023-11-17T02:52:44.180Z,11.52
2023-11-17T02:55:16.008Z,11.45
2023-11-17T02:57:46.645Z,11.24
2023-11-17T03:00:16.744Z,11.34
2023-11-17T03:02:49.009Z,11.52
2023-11-17T03:05:18.505Z,11.55
2023-11-17T03:07:49.428Z,11.42
2023-11-17T03:10:19.965Z,11.45
2023-11-17T03:12:51.311Z,11.44
2023-11-17T03:15:20.110Z,11.43
2023-11-17T03:17:53.230Z,11.33
2023-11-17T03:20:22.158Z,11.57
2023-11-17T03:22:51.021Z,11.51
2023-11-17T03:25:19.729Z,11.54
2023-11-17T03:27:49.660Z,11.50
2023-11-17T03:30:19.381Z,11.42
2023-11-17T03:32:48.697Z,11.42
2023-11-17T03:35:22.135Z,11.24
2023-11-17T03:37:52.128Z,11.40
2023-11-17T03:40:21.005Z,11.26
2023-11-17T03:42:50.014Z,11.25
2023-11-17T03:45:20.654Z,11.34
2023-11-17T03:47:49.695Z,11.42
2023-11-17T03:50:21.320Z,11.32
2023-11-17T03:52:52.735Z,11.56
2023-11-17T03:55:22.958Z,11.51
2023-11-17T03:57:52.116Z,11.46
2023-11-17T04:00:23.910Z,11.12
2023-11-17T04:02:53.610Z,11.22
2023-11-17T04:05:24.196Z,11.03
2023-11-17T04:07:56.621Z,11.38
2023-11-17T04:10:26.142Z,11.49
2023-11-17T04:12:56.779Z,11.26
2023-11-17T04:15:25.688Z,11.21
2023-11-17T04:17:57.695Z,11.37
2023-11-17T04:20:28.560Z,11.55
2023-11-17T04:22:57.842Z,11.62
2023-11-17T04:25:26.598Z,11.69
2023-11-17T04:27:57.854Z,11.69
2023-11-17T04:30:27.279Z,11.82
2023-11-17T04:32:56.409Z,11.99
2023-11-17T04:35:25.081Z,11.94
2023-11-17T04:37:55.994Z,11.88
2023-11-17T04:40:24.752Z,11.85
2023-11-17T04:42:53.814Z,11.86
2023-11-17T04:45:22.755Z,11.81
2023-11-17T04:47:51.877Z,11.68
2023-11-17T04:50:21.276Z,11.63
2023-11-17T04:52:50.448Z,11.60
2023-11-17T04:55:20.616Z,11.59
2023-11-17T04:57:49.724Z,11.48
2023-11-17T05:00:18.816Z,11.51
2023-11-17T05:02:48.403Z,11.44
2023-11-17T05:05:17.763Z,11.32
2023-11-17T05:07:46.807Z,11.32
2023-11-17T05:10:16.650Z,11.20
2023-11-17T05:12:47.579Z,11.11
2023-11-17T05:15:16.946Z,11.11
2023-11-17T05:17:46.142Z,11.02
2023-11-17T05:20:16.806Z,10.93
2023-11-17T05:22:47.544Z,10.91
2023-11-17T05:25:17.950Z,10.86
2023-11-17T05:27:50.335Z,10.97
2023-11-17T05:30:20.000Z,11.01
2023-11-17T05:32:50.292Z,11.05
2023-11-17T05:35:19.397Z,11.06
2023-11-17T05:37:48.397Z,11.03
2023-11-17T05:40:17.620Z,11.05
2023-11-17T05:42:48.020Z,10.77
2023-11-17T05:45:17.065Z,10.71
2023-11-17T05:47:46.116Z,10.79
2023-11-17T05:50:15.314Z,10.59
2023-11-17T05:52:45.034Z,10.75
2023-11-17T05:55:18.186Z,10.77
2023-11-17T05:57:49.470Z,10.92
2023-11-17T06:00:20.698Z,10.98
2023-11-17T06:02:52.178Z,10.99
2023-11-17T06:05:21.110Z,10.89
2023-11-17T06:07:50.131Z,10.90
2023-11-17T06:10:19.032Z,10.94
2023-11-17T06:12:51.349Z,11.03
2023-11-17T06:15:28.377Z,10.91
2023-11-17T06:17:57.822Z,10.79
2023-11-17T06:20:27.100Z,10.72
2023-11-17T06:22:56.125Z,10.66
2023-11-17T06:25:27.183Z,10.58
2023-11-17T06:27:57.711Z,10.30
2023-11-17T06:30:26.610Z,10.15
2023-11-17T06:32:55.648Z,9.86
2023-11-17T06:35:24.418Z,9.69
2023-11-17T06:37:54.640Z,9.72
2023-11-17T06:40:23.742Z,9.73
2023-11-17T06:42:52.863Z,9.67
2023-11-17T06:45:22.950Z,9.40
2023-11-17T06:47:52.895Z,9.39
2023-11-17T06:50:23.322Z,9.54
2023-11-17T06:52:52.049Z,9.78
2023-11-17T06:55:21.480Z,9.96
2023-11-17T06:57:50.169Z,10.00
2023-11-17T07:00:21.049Z,9.99
2023-11-17T07:02:51.165Z,9.91
2023-11-17T07:05:20.943Z,10.00
2023-11-17T07:07:50.525Z,10.10
2023-11-17T07:10:20.161Z,10.18
2023-11-17T07:12:50.500Z,10.28
2023-11-17T07:15:19.785Z,10.28
2023-11-17T07:17:53.372Z,10.18
2023-11-17T07:20:23.807Z,10.21
2023-11-17T07:22:53.524Z,10.25
2023-11-17T07:25:23.714Z,10.07
2023-11-17T07:27:52.441Z,10.17
2023-11-17T07:30:21.567Z,10.20
2023-11-17T07:32:51.947Z,10.33
2023-11-17T07:35:21.121Z,10.29
2023-11-17T07:37:50.225Z,10.38
2023-11-17T07:40:21.852Z,10.44
2023-11-17T07:42:51.221Z,10.34
2023-11-17T07:45:20.363Z,10.25
2023-11-17T07:47:49.673Z,10.23
2023-11-17T07:50:22.998Z,10.12
2023-11-17T07:52:51.627Z,10.13
2023-11-17T07:55:24.231Z,9.81
2023-11-17T07:57:57.425Z,9.86
2023-11-17T08:00:29.376Z,9.48
2023-11-17T08:02:58.340Z,9.56
2023-11-17T08:05:29.263Z,9.58
2023-11-17T08:07:58.098Z,9.65
2023-11-17T08:10:30.560Z,9.78
2023-11-17T08:13:00.656Z,9.82
2023-11-17T08:15:30.466Z,9.82
2023-11-17T08:17:59.502Z,9.87
2023-11-17T08:20:32.614Z,9.63
2023-11-17T08:23:01.551Z,9.00
2023-11-17T08:25:31.082Z,9.34
2023-11-17T08:27:59.896Z,9.50
2023-11-17T08:30:35.784Z,9.36
2023-11-17T08:33:11.575Z,9.15
2023-11-17T08:35:41.986Z,9.36
2023-11-17T08:38:10.606Z,9.22
2023-11-17T08:40:40.261Z,9.35
2023-11-17T08:43:09.184Z,9.27
2023-11-17T08:45:38.174Z,9.39
2023-11-17T08:48:08.413Z,9.12
2023-11-17T08:50:37.399Z,9.21
2023-11-17T08:53:07.560Z,9.20
2023-11-17T08:55:37.717Z,9.19
2023-11-17T08:58:07.472Z,9.24
2023-11-17T09:00:36.649Z,9.39
2023-11-17T09:03:06.189Z,9.51
2023-11-17T09:05:35.374Z,9.66
2023-11-17T09:08:04.055Z,9.50
2023-11-17T09:10:35.114Z,9.52
2023-11-17T09:13:05.976Z,9.48
2023-11-17T09:15:35.601Z,9.42
2023-11-17T09:18:04.460Z,9.36
2023-11-17T09:20:33.604Z,9.38
2023-11-17T09:23:02.511Z,9.28
2023-11-17T09:25:34.356Z,9.38
2023-11-17T09:28:06.362Z,9.48
2023-11-17T09:30:55.409Z,9.55
2023-11-17T09:33:25.955Z,9.59
2023-11-17T09:36:01.893Z,9.44
2023-11-17T09:38:36.901Z,9.43
2023-11-17T09:41:08.046Z,9.56
2023-11-17T09:43:40.691Z,9.60
2023-11-17T09:46:34.739Z,9.69
2023-11-17T09:49:09.375Z,9.78
2023-11-17T09:51:39.074Z,9.88
2023-11-17T09:54:14.895Z,9.89
2023-11-17T09:56:45.337Z,9.91
2023-11-17T09:59:15.556Z,9.87
2023-11-17T10:01:45.732Z,10.08
2023-11-17T10:04:18.670Z,10.11
2023-11-17T10:06:48.987Z,10.14
2023-11-17T10:09:19.540Z,10.23
2023-11-17T10:11:49.964Z,10.23
2023-11-17T10:14:24.089Z,10.40
2023-11-17T10:16:54.074Z,10.23
2023-11-17T10:19:24.681Z,10.14
2023-11-17T10:21:58.361Z,10.25
2023-11-17T10:24:30.761Z,10.37
2023-11-17T10:27:00.349Z,10.44
2023-11-17T10:29:31.156Z,10.39
2023-11-17T10:32:22.583Z,10.34
2023-11-17T10:35:14.357Z,10.45
2023-11-17T10:37:45.660Z,10.08
2023-11-17T10:40:25.831Z,10.04
2023-11-17T10:43:15.553Z,10.44
2023-11-17T10:45:48.277Z,10.57
2023-11-17T10:48:19.297Z,10.33
2023-11-17T10:50:48.047Z,10.57
2023-11-17T10:53:21.295Z,10.69
2023-11-17T10:55:54.378Z,10.75
2023-11-17T10:58:23.381Z,10.90
2023-11-17T11:00:53.939Z,10.97
2023-11-17T11:03:24.262Z,11.17
2023-11-17T11:06:00.169Z,11.34
2023-11-17T11:08:32.500Z,11.54
2023-11-17T11:11:01.261Z,11.61
2023-11-17T11:13:32.114Z,11.74
2023-11-17T11:16:08.658Z,11.92
2023-11-17T11:18:47.136Z,11.93
2023-11-17T11:21:18.319Z,12.01
2023-11-17T11:23:49.471Z,12.00
2023-11-17T11:26:19.861Z,12.06
2023-11-17T11:28:49.470Z,12.10
2023-11-17T11:31:23.104Z,12.13
2023-11-17T11:33:54.303Z,12.16
2023-11-17T11:36:24.558Z,12.32
2023-11-17T11:38:58.290Z,11.81
2023-11-17T11:41:27.501Z,11.57
2023-11-17T11:43:57.458Z,11.35
2023-11-17T11:46:30.216Z,11.29
2023-11-17T11:49:02.855Z,11.22
2023-11-17T11:51:35.233Z,11.32
2023-11-17T11:54:07.413Z,10.91
2023-11-17T11:56:39.852Z,11.17
2023-11-17T11:59:12.771Z,10.79
2023-11-17T12:01:49.402Z,11.27
2023-11-17T12:04:22.302Z,11.30
2023-11-17T12:07:36.798Z,11.62
2023-11-17T12:10:10.972Z,11.41
2023-11-17T12:12:43.522Z,11.28
2023-11-17T12:15:14.623Z,11.30
2023-11-17T12:17:51.500Z,11.53
2023-11-17T12:20:24.328Z,11.76
2023-11-17T12:23:00.812Z,11.75
2023-11-17T12:25:31.385Z,11.70
2023-11-17T12:28:01.088Z,11.63
2023-11-17T12:30:31.026Z,11.54
2023-11-17T12:33:01.792Z,11.15
2023-11-17T12:35:32.376Z,11.19
2023-11-17T12:38:21.166Z,11.43
2023-11-17T12:41:02.344Z,11.59
2023-11-17T12:43:32.968Z,10.44
2023-11-17T12:46:04.042Z,10.56
2023-11-17T12:48:34.704Z,10.63
2023-11-17T12:51:03.682Z,10.27
2023-11-17T12:53:50.797Z,10.55
2023-11-17T12:56:23.636Z,9.66
2023-11-17T12:58:54.551Z,9.84
2023-11-17T13:01:25.810Z,9.61
2023-11-17T13:04:00.578Z,9.19
2023-11-17T13:06:51.582Z,8.77
2023-11-17T13:09:20.352Z,8.88
2023-11-17T13:11:49.847Z,8.30
2023-11-17T13:14:26.321Z,8.14
2023-11-17T13:16:55.457Z,7.85
2023-11-17T13:19:27.694Z,7.45
2023-11-17T13:21:58.690Z,7.17
2023-11-17T13:24:27.785Z,7.12
2023-11-17T13:26:56.856Z,6.94
2023-11-17T13:29:28.428Z,7.12
2023-11-17T13:32:19.866Z,6.93
2023-11-17T13:34:57.091Z,6.73
2023-11-17T13:37:31.659Z,6.75
2023-11-17T13:40:03.830Z,6.75
2023-11-17T13:42:32.974Z,6.81
2023-11-17T13:45:01.821Z,7.17
2023-11-17T13:47:31.603Z,7.27
2023-11-17T13:50:16.347Z,7.17
2023-11-17T13:52:45.480Z,7.13
2023-11-17T13:55:14.534Z,7.15
2023-11-17T13:57:43.544Z,7.29
2023-11-17T14:00:15.061Z,7.07
2023-11-17T14:02:45.937Z,6.98
2023-11-17T14:05:16.376Z,7.04
2023-11-17T14:07:45.423Z,6.90
2023-11-17T14:10:17.428Z,6.86
2023-11-17T14:12:48.389Z,6.80
2023-11-17T14:15:20.475Z,6.98
2023-11-17T14:17:51.694Z,6.87
2023-11-17T14:20:26.150Z,6.65
2023-11-17T14:22:55.172Z,6.85
2023-11-17T14:25:25.745Z,6.82
2023-11-17T14:27:55.175Z,6.82
2023-11-17T14:30:26.637Z,6.92
2023-11-17T14:32:58.105Z,6.73
2023-11-17T14:35:28.449Z,6.70
2023-11-17T14:38:00.829Z,6.66
2023-11-17T14:40:30.911Z,6.60
2023-11-17T14:43:20.118Z,6.59
2023-11-17T14:45:49.566Z,6.86
2023-11-17T14:48:20.429Z,6.77
2023-11-17T14:50:51.964Z,6.50
2023-11-17T14:53:21.796Z,6.58
2023-11-17T14:55:51.221Z,6.53
2023-11-17T14:58:21.069Z,6.35
2023-11-17T15:00:52.444Z,6.47
2023-11-17T15:03:25.082Z,6.39
2023-11-17T15:05:56.319Z,6.39
2023-11-17T15:08:27.907Z,6.43
2023-11-17T15:11:00.733Z,6.67
2023-11-17T15:13:31.687Z,6.34
2023-11-17T15:16:05.783Z,6.42
2023-11-17T15:18:39.751Z,6.34
2023-11-17T15:21:10.634Z,6.27
2023-11-17T15:23:40.344Z,6.47
2023-11-17T15:26:09.364Z,6.26
2023-11-17T15:28:38.759Z,6.21
2023-11-17T15:31:11.679Z,6.36
2023-11-17T15:33:40.809Z,6.54
2023-11-17T15:36:13.279Z,6.55
2023-11-17T15:38:49.556Z,6.44
2023-11-17T15:41:20.176Z,6.47
2023-11-17T15:43:52.510Z,6.60
2023-11-17T15:46:24.358Z,6.39
2023-11-17T15:48:58.499Z,6.59
2023-11-17T15:51:49.203Z,6.58
2023-11-17T15:54:18.528Z,6.49
2023-11-17T15:56:47.785Z,6.16
2023-11-17T15:59:17.667Z,6.32
2023-11-17T16:01:49.973Z,6.11
2023-11-17T16:04:19.588Z,5.80
2023-11-17T16:06:51.796Z,5.85
2023-11-17T16:09:29.648Z,5.42
2023-11-17T16:12:00.625Z,5.41
2023-11-17T16:14:30.324Z,5.02
2023-11-17T16:17:01.150Z,5.02
2023-11-17T16:19:30.550Z,4.88
2023-11-17T16:22:02.137Z,4.63
2023-11-17T16:24:32.185Z,4.65
2023-11-17T16:27:01.320Z,4.02
2023-11-17T16:29:31.974Z,4.00
2023-11-17T16:32:01.043Z,3.96
2023-11-17T16:34:30.555Z,3.84
2023-11-17T16:37:01.001Z,3.77
2023-11-17T16:39:30.122Z,3.89
2023-11-17T16:41:59.384Z,3.76
2023-11-17T16:44:34.283Z,3.76
2023-11-17T16:47:04.840Z,3.65
2023-11-17T16:49:36.064Z,3.86
2023-11-17T16:52:07.371Z,3.91
2023-11-17T16:54:38.904Z,3.62
2023-11-17T16:57:09.867Z,3.78
2023-11-17T16:59:41.864Z,3.71
2023-11-17T17:02:14.927Z,3.67
2023-11-17T17:04:46.540Z,3.63
2023-11-17T17:07:16.983Z,3.74
2023-11-17T17:09:45.929Z,3.50
2023-11-17T17:12:17.908Z,3.68
2023-11-17T17:14:46.903Z,3.66
2023-11-17T17:17:15.932Z,3.68
2023-11-17T17:19:46.203Z,3.82
2023-11-17T17:22:17.737Z,3.67
2023-11-17T17:24:47.005Z,3.68
2023-11-17T17:27:16.210Z,3.50
2023-11-17T17:29:45.941Z,3.67
2023-11-17T17:32:16.229Z,3.47
2023-11-17T17:34:45.407Z,3.62
2023-11-17T17:37:15.110Z,3.57
2023-11-17T17:39:45.627Z,3.49
2023-11-17T17:42:17.520Z,3.55
2023-11-17T17:44:50.868Z,3.59
2023-11-17T17:47:20.637Z,3.56
2023-11-17T17:49:49.858Z,3.51
2023-11-17T17:52:18.569Z,3.68
2023-11-17T17:54:49.082Z,3.48
2023-11-17T17:57:17.704Z,3.45
2023-11-17T17:59:46.722Z,3.51
2023-11-17T18:02:16.220Z,3.36
2023-11-17T18:04:46.718Z,3.58
2023-11-17T18:07:15.528Z,3.56
2023-11-17T18:09:44.634Z,3.51
2023-11-17T18:12:16.000Z,3.55
2023-11-17T18:14:46.489Z,3.56
2023-11-17T18:17:16.455Z,3.52
2023-11-17T18:19:45.751Z,3.53
2023-11-17T18:22:14.528Z,3.37
2023-11-17T18:24:44.578Z,3.37
2023-11-17T18:27:15.976Z,3.51
2023-11-17T18:29:44.937Z,3.46
2023-11-17T18:32:35.836Z,3.25
2023-11-17T18:35:12.952Z,3.12
2023-11-17T18:37:44.447Z,3.34
2023-11-17T18:40:17.643Z,3.50
2023-11-17T18:42:48.179Z,3.68
2023-11-17T18:45:17.360Z,3.43
2023-11-17T18:47:46.439Z,3.15
2023-11-17T18:50:16.273Z,3.33
2023-11-17T18:52:44.965Z,3.31
2023-11-17T18:55:15.120Z,3.30
2023-11-17T18:57:44.280Z,3.39
2023-11-17T19:00:21.533Z,3.21
2023-11-17T19:02:52.433Z,3.32
2023-11-17T19:05:22.935Z,3.25
2023-11-17T19:07:53.010Z,3.48
2023-11-17T19:10:23.173Z,3.37
2023-11-17T19:12:52.787Z,3.38
2023-11-17T19:15:23.575Z,3.36
2023-11-17T19:17:52.323Z,3.26
2023-11-17T19:20:23.982Z,3.31
2023-11-17T19:22:55.440Z,3.33
2023-11-17T19:25:25.360Z,3.35
2023-11-17T19:27:54.087Z,3.39
2023-11-17T19:30:24.556Z,3.52
2023-11-17T19:32:53.736Z,3.51
2023-11-17T19:35:23.420Z,3.69
2023-11-17T19:37:52.440Z,3.53
2023-11-17T19:40:21.515Z,3.49
2023-11-17T19:42:50.539Z,3.43
2023-11-17T19:45:21.727Z,3.31
2023-11-17T19:47:51.944Z,3.24
2023-11-17T19:50:22.720Z,3.17
2023-11-17T19:52:52.003Z,3.12
2023-11-17T19:55:24.114Z,3.08
2023-11-17T19:57:54.240Z,3.20
2023-11-17T20:00:25.980Z,2.99
2023-11-17T20:02:57.722Z,3.02
2023-11-17T20:05:29.537Z,3.01
2023-11-17T20:08:00.327Z,3.05
2023-11-17T20:10:31.059Z,3.06
2023-11-17T20:13:01.600Z,2.90
2023-11-17T20:15:32.002Z,2.63
2023-11-17T20:18:05.545Z,2.67
2023-11-17T20:20:34.586Z,2.39
2023-11-17T20:23:03.300Z,2.31
2023-11-17T20:25:32.396Z,2.41
2023-11-17T20:28:01.635Z,2.37
2023-11-17T20:30:30.654Z,2.27
2023-11-17T20:33:00.142Z,2.28
2023-11-17T20:35:30.623Z,2.18
2023-11-17T20:37:59.371Z,2.25
2023-11-17T20:40:28.997Z,2.31
2023-11-17T20:42:58.845Z,2.28
2023-11-17T20:45:28.024Z,2.28
2023-11-17T20:47:57.547Z,2.36
2023-11-17T20:50:28.312Z,2.09
2023-11-17T20:53:00.480Z,2.11
2023-11-17T20:55:29.930Z,2.05
2023-11-17T20:57:58.787Z,1.86
2023-11-17T21:00:34.515Z,1.79
2023-11-17T21:03:08.359Z,1.75
2023-11-17T21:05:38.245Z,1.68
2023-11-17T21:08:11.923Z,1.78
2023-11-17T21:10:43.276Z,1.72
2023-11-17T21:13:11.933Z,1.67
2023-11-17T21:15:41.420Z,1.64
2023-11-17T21:18:10.156Z,1.58
2023-11-17T21:20:40.045Z,1.80
2023-11-17T21:23:10.099Z,1.76
2023-11-17T21:25:39.726Z,1.41
2023-11-17T21:28:08.459Z,1.51
2023-11-17T21:30:37.472Z,1.29
2023-11-17T21:33:08.238Z,1.18
2023-11-17T21:35:37.202Z,1.13
2023-11-17T21:38:06.012Z,1.12
2023-11-17T21:40:37.372Z,1.14
2023-11-17T21:43:05.979Z,1.11
2023-11-17T21:45:37.744Z,1.02
2023-11-17T21:48:08.455Z,1.01
2023-11-17T21:50:37.685Z,1.03
2023-11-17T21:53:06.679Z,1.05
2023-11-17T21:55:37.448Z,1.03
2023-11-17T21:58:07.574Z,1.03
2023-11-17T22:00:36.821Z,1.09
2023-11-17T22:03:06.527Z,0.94
2023-11-17T22:05:35.669Z,0.88
2023-11-17T22:08:04.646Z,0.88
2023-11-17T22:10:34.565Z,0.85
2023-11-17T22:13:04.633Z,0.71
2023-11-17T22:15:33.802Z,0.64
2023-11-17T22:18:03.867Z,0.68
2023-11-17T22:20:32.754Z,0.50
2023-11-17T22:23:01.349Z,0.62
2023-11-17T22:25:30.664Z,0.60
2023-11-17T22:28:00.613Z,0.80
2023-11-17T22:30:31.031Z,0.66
2023-11-17T22:32:59.905Z,0.65
2023-11-17T22:35:29.027Z,0.51
2023-11-17T22:37:57.878Z,0.34
2023-11-17T22:40:27.065Z,0.35
2023-11-17T22:42:57.367Z,0.37
2023-11-17T22:45:26.429Z,0.48
2023-11-17T22:47:56.512Z,0.40
2023-11-17T22:50:25.496Z,0.21
2023-11-17T22:52:55.566Z,0.28
2023-11-17T22:55:24.849Z,0.24
2023-11-17T22:57:53.634Z,-0.06
2023-11-17T23:00:39.463Z,0.02
2023-11-17T23:03:10.291Z,-0.13
2023-11-17T23:05:43.020Z,-0.23
2023-11-17T23:08:13.217Z,-0.23
2023-11-17T23:10:43.071Z,-0.33
2023-11-17T23:13:12.863Z,-0.34
2023-11-17T23:15:42.389Z,-0.40
2023-11-17T23:18:14.390Z,-0.48
2023-11-17T23:20:44.218Z,-0.39
2023-11-17T23:23:13.353Z,-0.53
2023-11-17T23:25:42.457Z,-0.28
2023-11-17T23:28:11.302Z,-0.47
2023-11-17T23:30:41.354Z,-0.48
2023-11-17T23:33:10.242Z,-0.58
2023-11-17T23:35:40.714Z,-0.55
2023-11-17T23:38:11.171Z,-0.51
2023-11-17T23:40:40.205Z,-0.31
2023-11-17T23:43:09.905Z,-0.33
2023-11-17T23:45:39.671Z,-0.37
2023-11-17T23:48:08.392Z,-0.41
2023-11-17T23:50:37.494Z,-0.40
2023-11-17T23:53:08.920Z,-0.37
2023-11-17T23:55:38.300Z,-0.31
2023-11-17T23:58:07.671Z,-0.26
